Bendorf, Germania

06:10 PM CEST die 30o July, anno 2015 (GMT +0200)
Grenzhäuser Str | | Change Station
CLOSE
Current Station
Personal Weather Stations
Location: Bendorf, RHEINLAND-PFALZ
Elevation: 315 ft
Nearby Weather Stations

Elev 315 ft 50.42 °N, 7.58 °E | Updated 27 seconds ago

Mostly Cloudy
Plerumque Nubila
64.6 °F
Feels Like 64.6 °F
N
0.9
Ventus Variabilis Ventus from Magis Zephyrus quam Aquilo
Gusts 2.2 mph

Hodie
High -- | Low -- °F
--% Chance of Precip.
Yesterday
High -- | Low -- °F
Precip. -- in
5:54 AM 9:17 PM
Waxing Gibbous, 99% visible
Pressio 30.04 in
Visibilitas 6.2 milia passuum
Clouds Few 1800 ft
Plerumque Nubila 7200 ft
Frigus in quo Ros apparet 54 °F
Umor 63%
Rainfall 0.02 in
Snow Depth Not available.
UV 2 out of 12
Pollen Not available.
Air Quality Not available.
Flu Activity Not available.
METAR EDGS 301550Z 29008KT 9999 FEW018 BKN072 12/09 Q1017

More Conditions Fewer Conditions

Pressio 30.04 in
Visibilitas 6.2 milia passuum
Clouds Few 1800 ft
Plerumque Nubila 7200 ft
Frigus in quo Ros apparet 54 °F
Umor 63%
Rainfall 0.02 in
Snow Depth Not available.
UV 2 out of 12
Pollen Not available.
Air Quality Not available.
Flu Activity Not available.
METAR EDGS 301550Z 29008KT 9999 FEW018 BKN072 12/09 Q1017

More Conditions Fewer Conditions

10-Day Weather Forecast

×

Almanac

Astronomy

Jul. 30, 2015 Rise Set
Actual Time
Civil Twilight
Nautical Twilight
Astronomical Twilight
Moon
Length Of Visible Light
Length of Day
Tomorrow will be .
, % of the Moon is Illuminated

Today's Extremes

Country Highs Country Lows

Community

WunderPhotos

Upload Photos

1,842,416 photos uploaded!

WunderBlogs® & News

Nearby

Air Quality

  Air Quality AQ Index Pollutant
Not available.

Snow Depth

Station Depth Elevation

Earthquake Activity

City Distance Mag. Time & Date
Minimum magnitude displayed is 2.5.

Coastal Water Temperatures

Locus Calor

Stations

Nearby Weather Stations

Station Location Temp Frigus Venti Frigus in quo Ros apparet Umor Ventus Precip. Elev Renovata Type